Terminal Aerodrome Forecast
Issued by NWS Austin/San Antonio, TX

Home | Current Version | Previous Version | Text Only | Print | Product List | Glossary On
Versions: 1 2 3 4 5 6 7 8 9 10 11 12 13 14 15 16 17 18 19
000
FTUS44 KEWX 011141
TAFAUS
TAF
KAUS 011141Z 0112/0218 VRB04KT P6SM BKN010 BKN035
     FM011500 16008KT P6SM BKN020
     FM011600 16010KT P6SM BKN050
     FM012000 14012KT P6SM VCSH BKN060
     FM020100 16008KT P6SM SCT060
     FM020900 VRB04KT P6SM BKN020=

USA.gov is the U.S. government's official web portal to all federal, state and local government web resources and services.